createdAt,value
2019-01-24T00:01:46.870Z,24.23
2019-01-24T00:04:17.993Z,25.50
2019-01-24T00:06:48.769Z,24.07
2019-01-24T00:09:19.608Z,26.90
2019-01-24T00:11:50.830Z,24.97
2019-01-24T00:14:21.981Z,24.77
2019-01-24T00:16:52.934Z,25.00
2019-01-24T00:19:23.595Z,24.10
2019-01-24T00:21:55.475Z,24.97
2019-01-24T00:24:27.260Z,24.87
2019-01-24T00:26:58.488Z,26.00
2019-01-24T00:29:29.379Z,25.47
2019-01-24T00:32:00.687Z,25.17
2019-01-24T00:34:31.748Z,26.17
2019-01-24T00:37:02.523Z,24.90
2019-01-24T00:39:33.376Z,23.63
2019-01-24T00:42:04.465Z,24.43
2019-01-24T00:44:35.664Z,25.07
2019-01-24T00:47:06.647Z,25.00
2019-01-24T00:49:37.422Z,24.93
2019-01-24T00:52:08.152Z,24.30
2019-01-24T00:54:38.882Z,25.97
2019-01-24T00:57:09.628Z,25.13
2019-01-24T00:59:40.727Z,26.20
2019-01-24T01:02:11.291Z,26.30
2019-01-24T01:04:41.715Z,26.23
2019-01-24T01:07:12.516Z,26.10
2019-01-24T01:09:42.940Z,25.53
2019-01-24T01:12:13.602Z,26.23
2019-01-24T01:14:44.107Z,25.53
2019-01-24T01:17:14.568Z,25.40
2019-01-24T01:19:45.051Z,26.20
2019-01-24T01:22:15.934Z,25.07
2019-01-24T01:24:46.397Z,25.33
2019-01-24T01:27:16.815Z,26.13
2019-01-24T01:29:47.662Z,25.47
2019-01-24T01:32:18.172Z,25.60
2019-01-24T01:34:48.477Z,26.90
2019-01-24T01:37:18.845Z,25.97
2019-01-24T01:39:49.320Z,26.80
2019-01-24T01:42:20.107Z,25.63
2019-01-24T01:44:50.756Z,28.17
2019-01-24T01:47:21.492Z,27.63
2019-01-24T01:49:52.178Z,27.37
2019-01-24T01:52:22.669Z,26.50
2019-01-24T01:54:52.792Z,27.57
2019-01-24T01:57:23.512Z,27.77
2019-01-24T01:59:53.714Z,25.97
2019-01-24T02:02:23.961Z,26.83
2019-01-24T02:04:54.125Z,26.33
2019-01-24T02:07:24.420Z,27.97
2019-01-24T02:09:54.665Z,26.67
2019-01-24T02:12:24.911Z,26.93
2019-01-24T02:15:37.726Z,27.77
2019-01-24T02:18:08.272Z,26.90
2019-01-24T02:20:38.678Z,28.50
2019-01-24T02:23:09.014Z,28.57
2019-01-24T02:25:39.288Z,27.53
2019-01-24T02:28:09.599Z,28.30
2019-01-24T02:30:40.193Z,28.93
2019-01-24T02:33:11.024Z,28.37
2019-01-24T02:35:41.160Z,28.80
2019-01-24T02:38:11.292Z,27.73
2019-01-24T02:40:41.498Z,28.20
2019-01-24T02:43:11.838Z,26.63
2019-01-24T02:45:42.326Z,27.73
2019-01-24T02:48:12.653Z,28.87
2019-01-24T02:50:42.869Z,27.27
2019-01-24T02:53:13.051Z,29.20
2019-01-24T02:55:43.246Z,29.30
2019-01-24T02:58:13.863Z,28.67
2019-01-24T03:00:44.704Z,29.50
2019-01-24T03:03:14.800Z,28.83
2019-01-24T03:05:45.614Z,27.27
2019-01-24T03:08:15.856Z,27.07
2019-01-24T03:10:46.036Z,27.43
2019-01-24T03:13:16.479Z,27.80
2019-01-24T03:15:47.054Z,28.27
2019-01-24T03:18:17.649Z,28.53
2019-01-24T03:20:47.973Z,29.17
2019-01-24T03:23:18.207Z,28.30
2019-01-24T03:25:48.709Z,28.27
2019-01-24T03:28:18.959Z,28.10
2019-01-24T03:30:49.131Z,29.17
2019-01-24T03:33:19.337Z,31.73
2019-01-24T03:35:49.678Z,32.20
2019-01-24T03:38:20.110Z,31.90
2019-01-24T03:40:50.247Z,32.97
2019-01-24T03:43:20.673Z,32.03
2019-01-24T03:45:50.778Z,34.27
2019-01-24T03:48:20.911Z,33.03
2019-01-24T03:50:51.297Z,31.97
2019-01-24T03:53:21.598Z,31.20
2019-01-24T03:55:52.052Z,32.63
2019-01-24T03:58:22.429Z,32.50
2019-01-24T04:00:52.737Z,32.30
2019-01-24T04:03:23.478Z,33.53
2019-01-24T04:05:53.736Z,32.73
2019-01-24T04:08:23.955Z,32.90
2019-01-24T04:10:54.317Z,32.70
2019-01-24T04:13:24.854Z,32.83
2019-01-24T04:15:55.244Z,32.27
2019-01-24T04:18:25.933Z,33.70
2019-01-24T04:20:56.454Z,33.27
2019-01-24T04:23:26.662Z,33.20
2019-01-24T04:25:57.292Z,34.20
2019-01-24T04:28:27.572Z,33.23
2019-01-24T04:30:57.789Z,34.90
2019-01-24T04:33:29.732Z,35.23
2019-01-24T04:36:00.117Z,35.53
2019-01-24T04:38:30.414Z,34.33
2019-01-24T04:41:00.616Z,34.23
2019-01-24T04:43:30.906Z,34.97
2019-01-24T04:46:01.516Z,35.70
2019-01-24T04:48:34.365Z,36.53
2019-01-24T04:51:04.665Z,35.20
2019-01-24T04:53:35.216Z,36.20
2019-01-24T04:56:05.750Z,35.17
2019-01-24T04:58:35.899Z,33.27
2019-01-24T05:01:06.366Z,35.57
2019-01-24T05:03:36.648Z,36.93
2019-01-24T05:06:07.403Z,36.83
2019-01-24T05:08:37.939Z,34.37
2019-01-24T05:11:08.232Z,35.17
2019-01-24T05:13:38.504Z,36.50
2019-01-24T05:16:09.012Z,34.83
2019-01-24T05:18:39.820Z,34.97
2019-01-24T05:21:10.199Z,35.70
2019-01-24T05:23:40.457Z,34.00
2019-01-24T05:26:10.770Z,34.67
2019-01-24T05:28:41.465Z,34.57
2019-01-24T05:31:12.118Z,35.97
2019-01-24T05:33:42.330Z,34.63
2019-01-24T05:36:12.961Z,37.20
2019-01-24T05:38:43.421Z,35.27
2019-01-24T05:41:13.790Z,34.20
2019-01-24T05:43:44.111Z,36.17
2019-01-24T05:46:14.418Z,36.67
2019-01-24T05:48:44.821Z,36.73
2019-01-24T05:51:15.162Z,35.83
2019-01-24T05:53:45.448Z,36.27
2019-01-24T05:56:15.899Z,36.40
2019-01-24T05:58:46.443Z,35.67
2019-01-24T06:01:17.109Z,36.20
2019-01-24T06:03:47.467Z,36.43
2019-01-24T06:06:17.984Z,36.50
2019-01-24T06:08:48.739Z,35.63
2019-01-24T06:11:19.063Z,36.63
2019-01-24T06:13:49.187Z,36.50
2019-01-24T06:16:19.564Z,35.33
2019-01-24T06:18:50.139Z,36.77
2019-01-24T06:21:20.894Z,36.80
2019-01-24T06:23:51.773Z,37.87
2019-01-24T06:26:22.694Z,36.43
2019-01-24T06:28:53.318Z,39.30
2019-01-24T06:31:24.005Z,37.13
2019-01-24T06:33:54.675Z,38.10
2019-01-24T06:36:25.387Z,37.90
2019-01-24T06:38:56.046Z,36.67
2019-01-24T06:41:26.672Z,36.67
2019-01-24T06:43:57.272Z,35.83
2019-01-24T06:46:28.551Z,38.33
2019-01-24T06:48:59.443Z,37.23
2019-01-24T06:51:30.334Z,38.20
2019-01-24T06:54:00.987Z,38.17
2019-01-24T06:56:31.912Z,36.77
2019-01-24T06:59:02.572Z,37.63
2019-01-24T07:01:33.306Z,36.77
2019-01-24T07:04:04.007Z,38.37
2019-01-24T07:06:34.731Z,36.33
2019-01-24T07:09:08.448Z,36.60
2019-01-24T07:11:39.095Z,37.47
2019-01-24T07:14:09.698Z,36.70
2019-01-24T07:16:40.683Z,38.30
2019-01-24T07:19:11.465Z,37.67
2019-01-24T07:21:42.482Z,35.87
2019-01-24T07:24:13.253Z,37.00
2019-01-24T07:26:43.873Z,37.70
2019-01-24T07:29:14.870Z,36.40
2019-01-24T07:31:45.423Z,36.37
2019-01-24T07:34:16.041Z,36.77
2019-01-24T07:36:46.705Z,36.10
2019-01-24T07:39:17.336Z,36.60
2019-01-24T07:41:48.121Z,37.13
2019-01-24T07:44:18.669Z,37.00
2019-01-24T07:46:49.328Z,37.40
2019-01-24T07:49:19.926Z,37.27
2019-01-24T07:51:50.561Z,36.70
2019-01-24T07:56:50.584Z,37.73
2019-01-24T07:59:21.380Z,35.97
2019-01-24T08:01:51.693Z,36.57
2019-01-24T08:04:22.084Z,37.17
2019-01-24T08:06:52.474Z,35.93
2019-01-24T08:09:22.802Z,35.83
2019-01-24T08:11:53.487Z,36.27
2019-01-24T08:14:23.896Z,35.47
2019-01-24T08:16:54.200Z,37.53
2019-01-24T08:19:24.694Z,35.63
2019-01-24T08:21:55.120Z,35.53
2019-01-24T08:24:25.518Z,36.53
2019-01-24T08:26:56.171Z,36.73
2019-01-24T08:29:26.947Z,36.50
2019-01-24T08:31:57.248Z,35.80
2019-01-24T08:34:27.570Z,36.73
2019-01-24T08:36:57.975Z,35.80
2019-01-24T08:39:28.368Z,38.30
2019-01-24T08:41:58.965Z,36.70
2019-01-24T08:44:29.401Z,36.17
2019-01-24T08:46:59.814Z,36.80
2019-01-24T08:49:30.328Z,35.93
2019-01-24T08:52:00.662Z,36.10
2019-01-24T08:54:31.087Z,37.63
2019-01-24T08:57:01.465Z,37.53
2019-01-24T08:59:31.734Z,37.37
2019-01-24T09:02:02.110Z,35.40
2019-01-24T09:04:32.495Z,34.53
2019-01-24T09:07:02.827Z,34.97
2019-01-24T09:09:33.583Z,35.97
2019-01-24T09:12:04.414Z,36.17
2019-01-24T09:14:34.755Z,37.07
2019-01-24T09:17:05.156Z,35.13
2019-01-24T09:19:35.666Z,34.90
2019-01-24T09:22:06.267Z,34.00
2019-01-24T09:24:36.663Z,36.63
2019-01-24T09:27:06.992Z,35.07
2019-01-24T09:29:37.765Z,35.40
2019-01-24T09:32:08.407Z,35.73
2019-01-24T09:34:38.906Z,35.77
2019-01-24T09:37:09.309Z,36.20
2019-01-24T09:39:39.727Z,35.43
2019-01-24T09:42:10.210Z,35.63
2019-01-24T09:44:40.620Z,36.50
2019-01-24T09:47:11.338Z,36.30
2019-01-24T09:49:41.802Z,37.07
2019-01-24T09:52:12.559Z,36.43
2019-01-24T09:54:42.976Z,35.43
2019-01-24T09:57:13.817Z,36.10
2019-01-24T09:59:44.086Z,35.10
2019-01-24T10:02:14.776Z,37.37
2019-01-24T10:04:45.437Z,34.97
2019-01-24T10:07:16.119Z,37.03
2019-01-24T10:09:46.627Z,38.00
2019-01-24T10:12:17.031Z,36.27
2019-01-24T10:14:48.578Z,35.67
2019-01-24T10:17:18.976Z,35.77
2019-01-24T10:19:49.645Z,36.83
2019-01-24T10:22:19.984Z,36.57
2019-01-24T10:24:50.383Z,37.17
2019-01-24T10:27:21.117Z,37.77
2019-01-24T10:29:51.506Z,36.63
2019-01-24T10:32:22.108Z,37.23
2019-01-24T10:34:52.545Z,37.43
2019-01-24T10:37:22.910Z,34.83
2019-01-24T10:39:53.333Z,37.20
2019-01-24T10:42:23.728Z,36.13
2019-01-24T10:44:54.132Z,34.20
2019-01-24T10:47:24.623Z,35.23
2019-01-24T10:49:54.842Z,33.63
2019-01-24T10:52:25.431Z,35.77
2019-01-24T10:54:55.952Z,35.17
2019-01-24T10:57:26.328Z,35.17
2019-01-24T10:59:56.729Z,36.07
2019-01-24T11:02:27.142Z,36.10
2019-01-24T11:04:57.524Z,35.63
2019-01-24T11:07:27.980Z,35.23
2019-01-24T11:09:58.386Z,35.57
2019-01-24T11:12:28.784Z,35.77
2019-01-24T11:14:59.230Z,35.73
2019-01-24T11:17:29.849Z,35.57
2019-01-24T11:20:00.260Z,35.40
2019-01-24T11:22:31.002Z,37.00
2019-01-24T11:25:01.410Z,36.30
2019-01-24T11:27:31.816Z,35.40
2019-01-24T11:30:02.146Z,36.03
2019-01-24T11:32:32.951Z,35.33
2019-01-24T11:35:03.355Z,33.83
2019-01-24T11:37:33.766Z,33.73
2019-01-24T11:40:05.026Z,34.17
2019-01-24T11:42:35.426Z,34.77
2019-01-24T11:45:06.844Z,34.83
2019-01-24T11:47:37.276Z,35.00
2019-01-24T11:50:14.300Z,34.20
2019-01-24T11:52:44.790Z,36.17
2019-01-24T11:55:17.141Z,32.80
2019-01-24T11:57:47.555Z,31.73
2019-01-24T12:00:39.725Z,33.37
2019-01-24T12:03:10.225Z,33.40
2019-01-24T12:05:40.899Z,34.30
2019-01-24T12:08:11.616Z,33.80
2019-01-24T12:10:42.105Z,33.10
2019-01-24T12:13:12.495Z,31.77
2019-01-24T12:15:42.908Z,31.63
2019-01-24T12:18:13.645Z,31.90
2019-01-24T12:20:43.965Z,32.43
2019-01-24T12:23:14.486Z,30.93
2019-01-24T12:25:44.980Z,32.17
2019-01-24T12:28:15.571Z,31.03
2019-01-24T12:30:45.899Z,30.63
2019-01-24T12:33:16.300Z,32.13
2019-01-24T12:35:46.694Z,30.87
2019-01-24T12:38:17.094Z,29.53
2019-01-24T12:40:47.492Z,29.40
2019-01-24T12:43:17.883Z,29.80
2019-01-24T12:45:48.678Z,30.53
2019-01-24T12:48:19.345Z,29.17
2019-01-24T12:50:49.847Z,29.67
2019-01-24T12:53:20.234Z,29.37
2019-01-24T12:55:50.638Z,29.33
2019-01-24T12:58:21.131Z,29.63
2019-01-24T13:00:51.529Z,31.27
2019-01-24T13:03:22.280Z,32.37
2019-01-24T13:05:52.669Z,33.93
2019-01-24T13:08:22.951Z,32.30
2019-01-24T13:10:53.419Z,35.60
2019-01-24T13:13:23.883Z,36.57
2019-01-24T13:15:54.289Z,33.63
2019-01-24T13:18:25.117Z,32.97
2019-01-24T13:20:55.504Z,32.47
2019-01-24T13:23:25.920Z,33.27
2019-01-24T13:25:56.309Z,31.97
2019-01-24T13:28:26.737Z,32.57
2019-01-24T13:30:57.229Z,34.07
2019-01-24T13:33:27.658Z,31.80
2019-01-24T13:35:58.407Z,31.43
2019-01-24T13:38:28.795Z,32.93
2019-01-24T13:40:59.252Z,32.73
2019-01-24T13:43:29.677Z,31.40
2019-01-24T13:46:00.051Z,29.73
2019-01-24T13:48:31.030Z,31.30
2019-01-24T13:51:01.455Z,31.17
2019-01-24T13:53:31.928Z,31.87
2019-01-24T13:56:03.282Z,30.47
2019-01-24T13:58:33.834Z,30.33
2019-01-24T14:01:04.781Z,28.70
2019-01-24T14:04:18.052Z,30.80
2019-01-24T14:06:48.561Z,30.23
2019-01-24T14:09:19.596Z,31.37
2019-01-24T14:11:49.990Z,29.23
2019-01-24T14:14:20.465Z,30.93
2019-01-24T14:16:51.134Z,29.87
2019-01-24T14:19:22.729Z,31.53
2019-01-24T14:21:53.478Z,30.93
2019-01-24T14:24:25.481Z,30.63
2019-01-24T14:26:56.120Z,29.63
2019-01-24T14:29:27.647Z,30.27
2019-01-24T14:32:00.389Z,31.20
2019-01-24T14:34:31.588Z,31.53
2019-01-24T14:37:02.609Z,33.70
2019-01-24T14:39:35.105Z,31.03
2019-01-24T14:42:07.678Z,30.37
2019-01-24T14:44:40.980Z,29.23
2019-01-24T14:47:14.299Z,29.87
2019-01-24T14:49:47.065Z,28.67
2019-01-24T14:52:20.702Z,28.67
2019-01-24T14:54:54.966Z,28.73
2019-01-24T14:57:28.089Z,29.87
2019-01-24T15:00:00.921Z,30.90
2019-01-24T15:02:33.757Z,30.30
2019-01-24T15:05:08.417Z,30.07
2019-01-24T15:07:46.941Z,29.73
2019-01-24T15:10:15.424Z,31.57
2019-01-24T15:12:49.270Z,30.00
2019-01-24T15:15:22.179Z,30.80
2019-01-24T15:17:55.152Z,30.17
2019-01-24T15:20:28.173Z,31.57
2019-01-24T15:23:01.027Z,30.60
2019-01-24T15:25:33.912Z,30.73
2019-01-24T15:28:06.159Z,30.97
2019-01-24T15:30:39.628Z,30.43
2019-01-24T15:33:12.257Z,29.23
2019-01-24T15:35:45.879Z,30.37
2019-01-24T15:38:19.600Z,30.80
2019-01-24T15:40:53.863Z,28.83
2019-01-24T15:43:27.156Z,29.97
2019-01-24T15:45:59.395Z,29.43
2019-01-24T15:48:33.527Z,30.27
2019-01-24T15:51:06.245Z,32.67
2019-01-24T15:53:39.967Z,31.57
2019-01-24T15:56:13.707Z,30.10
2019-01-24T15:58:46.775Z,30.53
2019-01-24T16:01:21.188Z,30.80
2019-01-24T16:03:54.800Z,31.40
2019-01-24T16:06:27.494Z,29.90
2019-01-24T16:09:00.864Z,28.77
2019-01-24T16:11:33.937Z,30.60
2019-01-24T16:14:07.125Z,31.37
2019-01-24T16:16:41.850Z,30.77
2019-01-24T16:19:15.031Z,31.80
2019-01-24T16:21:48.036Z,33.77
2019-01-24T16:24:21.571Z,34.73
2019-01-24T16:26:53.739Z,36.47
2019-01-24T16:29:27.174Z,37.07
2019-01-24T16:32:00.426Z,34.27
2019-01-24T16:34:34.930Z,30.47
2019-01-24T16:37:07.706Z,29.80
2019-01-24T16:39:41.482Z,32.03
2019-01-24T16:42:14.459Z,40.67
2019-01-24T16:44:47.844Z,35.13
2019-01-24T16:47:20.842Z,30.57
2019-01-24T16:49:54.780Z,32.90
2019-01-24T16:52:28.301Z,32.70
2019-01-24T16:55:03.607Z,32.83
2019-01-24T16:57:37.462Z,31.67
2019-01-24T17:00:38.008Z,29.57
2019-01-24T17:03:12.600Z,26.60
2019-01-24T17:05:48.313Z,28.17
2019-01-24T17:08:22.982Z,28.03
2019-01-24T17:10:56.723Z,29.23
2019-01-24T17:13:30.559Z,29.20
2019-01-24T17:16:04.700Z,28.97
2019-01-24T17:18:38.674Z,30.23
2019-01-24T17:21:13.527Z,31.07
2019-01-24T17:23:48.401Z,30.37
2019-01-24T17:26:22.319Z,30.87
2019-01-24T17:28:56.482Z,30.87
2019-01-24T17:31:31.546Z,31.57
2019-01-24T17:34:06.432Z,31.37
2019-01-24T17:36:40.882Z,30.77
2019-01-24T17:39:16.225Z,32.80
2019-01-24T17:41:49.703Z,33.00
2019-01-24T17:44:23.670Z,33.23
2019-01-24T17:46:56.922Z,35.10
2019-01-24T17:49:30.553Z,33.40
2019-01-24T17:52:04.856Z,33.17
2019-01-24T17:54:38.349Z,34.07
2019-01-24T17:57:11.701Z,34.20
2019-01-24T17:59:46.606Z,34.70
2019-01-24T18:02:22.325Z,32.47
2019-01-24T18:04:57.085Z,30.57
2019-01-24T18:07:31.707Z,32.17
2019-01-24T18:10:14.175Z,32.37
2019-01-24T18:12:47.639Z,33.43
2019-01-24T18:15:26.605Z,33.20
2019-01-24T18:18:03.271Z,32.23
2019-01-24T18:20:43.947Z,33.33
2019-01-24T18:23:21.147Z,33.27
2019-01-24T18:25:58.047Z,31.03
2019-01-24T18:28:41.850Z,30.20
2019-01-24T18:31:19.057Z,31.10
2019-01-24T18:34:00.036Z,31.87
2019-01-24T18:36:36.639Z,31.87
2019-01-24T18:39:15.666Z,33.03
2019-01-24T18:41:51.936Z,35.23
2019-01-24T18:44:26.381Z,32.87
2019-01-24T18:47:01.593Z,33.70
2019-01-24T18:49:37.923Z,34.47
2019-01-24T18:52:13.517Z,32.73
2019-01-24T18:54:49.283Z,33.90
2019-01-24T18:57:26.420Z,31.43
2019-01-24T19:00:07.089Z,32.57
2019-01-24T19:02:43.828Z,31.03
2019-01-24T19:05:21.462Z,36.33
2019-01-24T19:07:58.876Z,34.67
2019-01-24T19:10:36.312Z,34.77
2019-01-24T19:13:13.883Z,35.23
2019-01-24T19:15:50.975Z,37.00
2019-01-24T19:18:27.713Z,33.60
2019-01-24T19:21:06.128Z,36.43
2019-01-24T19:23:44.543Z,34.40
2019-01-24T19:26:22.460Z,32.63
2019-01-24T19:29:00.488Z,33.47
2019-01-24T19:31:37.777Z,35.27
2019-01-24T19:34:15.686Z,33.77
2019-01-24T19:36:54.262Z,35.00
2019-01-24T19:39:31.527Z,34.60
2019-01-24T19:42:08.861Z,35.83
2019-01-24T19:44:46.456Z,35.53
2019-01-24T19:47:23.569Z,33.97
2019-01-24T19:50:01.175Z,34.93
2019-01-24T19:52:38.658Z,33.90
2019-01-24T19:55:15.661Z,37.60
2019-01-24T19:57:52.180Z,34.90
2019-01-24T20:00:30.866Z,35.87
2019-01-24T20:03:08.900Z,36.13
2019-01-24T20:05:45.853Z,36.83
2019-01-24T20:08:23.563Z,38.03
2019-01-24T20:11:00.152Z,40.00
2019-01-24T20:13:36.699Z,38.10
2019-01-24T20:16:13.427Z,40.20
2019-01-24T20:18:52.228Z,36.73
2019-01-24T20:21:29.469Z,35.67
2019-01-24T20:24:06.710Z,36.23
2019-01-24T20:26:44.357Z,39.40
2019-01-24T20:29:21.622Z,40.90
2019-01-24T20:31:59.144Z,36.20
2019-01-24T20:34:36.256Z,36.80
2019-01-24T20:37:12.070Z,39.20
2019-01-24T20:39:47.174Z,38.80
2019-01-24T20:42:23.712Z,40.40
2019-01-24T20:44:59.447Z,42.37
2019-01-24T20:47:36.538Z,40.30
2019-01-24T20:50:13.655Z,40.30
2019-01-24T20:52:49.840Z,39.33
2019-01-24T20:55:25.676Z,36.37
2019-01-24T20:58:01.062Z,34.83
2019-01-24T21:00:36.111Z,34.67
2019-01-24T21:03:11.211Z,35.50
2019-01-24T21:05:46.140Z,35.20
2019-01-24T21:08:21.711Z,35.50
2019-01-24T21:10:56.234Z,37.00
2019-01-24T21:13:30.569Z,38.73
2019-01-24T21:16:04.699Z,33.90
2019-01-24T21:18:38.884Z,35.20
2019-01-24T21:21:12.210Z,34.03
2019-01-24T21:23:43.778Z,34.60
2019-01-24T21:26:16.251Z,33.93
2019-01-24T21:28:49.692Z,32.67
2019-01-24T21:31:21.805Z,34.73
2019-01-24T21:33:55.263Z,32.93
2019-01-24T21:36:28.754Z,33.87
2019-01-24T21:39:02.125Z,34.13
2019-01-24T21:41:34.309Z,35.83
2019-01-24T21:44:06.625Z,33.53
2019-01-24T21:46:38.649Z,33.23
2019-01-24T21:49:10.291Z,33.80
2019-01-24T21:51:42.867Z,32.60
2019-01-24T21:54:15.843Z,33.90
2019-01-24T21:56:49.097Z,33.87
2019-01-24T21:59:20.761Z,32.97
2019-01-24T22:01:52.405Z,33.33
2019-01-24T22:04:23.227Z,33.97
2019-01-24T22:06:54.184Z,33.27
2019-01-24T22:09:29.140Z,33.27
2019-01-24T22:11:56.808Z,34.87
2019-01-24T22:14:27.244Z,33.63
2019-01-24T22:16:57.716Z,34.20
2019-01-24T22:19:29.047Z,34.80
2019-01-24T22:21:59.549Z,32.13
2019-01-24T22:24:29.841Z,32.93
2019-01-24T22:27:00.610Z,32.17
2019-01-24T22:29:31.749Z,32.00
2019-01-24T22:32:02.204Z,31.60
2019-01-24T22:34:32.606Z,33.17
2019-01-24T22:37:03.973Z,34.77
2019-01-24T22:39:36.665Z,33.77
2019-01-24T22:42:07.252Z,31.40
2019-01-24T22:44:38.095Z,32.20
2019-01-24T22:47:08.523Z,30.97
2019-01-24T22:49:39.315Z,31.50
2019-01-24T22:52:10.073Z,31.53
2019-01-24T22:54:40.655Z,31.93
2019-01-24T22:57:11.204Z,31.87
2019-01-24T22:59:41.629Z,31.50
2019-01-24T23:02:18.568Z,30.90
2019-01-24T23:04:49.121Z,33.77
2019-01-24T23:07:19.590Z,33.70
2019-01-24T23:09:50.313Z,33.43
2019-01-24T23:12:21.015Z,32.53
2019-01-24T23:14:51.661Z,32.63
2019-01-24T23:17:22.144Z,33.87
2019-01-24T23:19:52.494Z,32.10
2019-01-24T23:22:22.900Z,34.67
2019-01-24T23:24:53.565Z,32.80
2019-01-24T23:27:24.218Z,32.43
2019-01-24T23:29:54.597Z,32.23
2019-01-24T23:32:25.148Z,34.17
2019-01-24T23:34:55.578Z,33.20
2019-01-24T23:37:26.115Z,33.50
2019-01-24T23:39:56.430Z,31.10
2019-01-24T23:42:26.768Z,30.97
2019-01-24T23:44:57.082Z,29.70
2019-01-24T23:47:28.015Z,31.00
2019-01-24T23:49:58.394Z,31.07
2019-01-24T23:52:29.035Z,31.07
2019-01-24T23:54:59.633Z,29.70
2019-01-24T23:57:30.008Z,33.07
